Time;durP1;ratioP1;P1;durP2;ratioP2;P2;SDS_P1;SDS_P2;PMS_P1;PMS_P2;Temp;Humidity;BMP_temperature;BMP_pressure;BME280_temperature;BME280_humidity;BME280_pressure;Samples;Min_cycle;Max_cycle;Signal;HPM_P1;HPM_P2
2023/05/30 00:03:01;;;;;;;2.92;1.65;;;20.60;74.50;;;;;;10099749;28;20025;-62
2023/05/30 00:07:51;;;;;;;3.88;1.90;;;20.50;74.60;;;;;;10098659;28;20033;-64
2023/05/30 00:12:42;;;;;;;2.97;2.25;;;20.50;74.60;;;;;;10100353;28;20083;-62
2023/05/30 00:17:35;;;;;;;5.18;2.13;;;20.40;74.90;;;;;;10086308;28;20033;-60
2023/05/30 00:22:26;;;;;;;3.85;2.30;;;20.30;75.10;;;;;;10076688;28;20036;-60
2023/05/30 00:27:17;;;;;;;3.95;2.25;;;20.30;75.00;;;;;;10095675;28;20384;-65
2023/05/30 00:32:08;;;;;;;8.00;2.33;;;20.20;75.60;;;;;;10101430;28;20029;-62
2023/05/30 00:36:58;;;;;;;4.70;1.85;;;20.10;75.70;;;;;;10103870;28;20045;-61
2023/05/30 00:41:49;;;;;;;4.95;2.30;;;20.10;75.60;;;;;;10102091;28;20215;-61
2023/05/30 00:46:40;;;;;;;3.90;2.47;;;20.00;75.70;;;;;;10101847;28;20035;-60
2023/05/30 00:51:32;;;;;;;6.30;2.85;;;19.90;76.00;;;;;;10100234;28;20040;-62
2023/05/30 00:56:23;;;;;;;6.18;3.05;;;19.80;76.20;;;;;;10098833;28;20089;-65
2023/05/30 01:01:13;;;;;;;3.65;2.00;;;19.90;76.00;;;;;;10099539;28;20017;-62
2023/05/30 01:06:04;;;;;;;4.97;2.22;;;19.70;76.50;;;;;;10099310;28;20581;-62
2023/05/30 01:11:06;;;;;;;4.85;2.80;;;19.60;76.70;;;;;;10098636;28;20104;-64
2023/05/30 01:16:05;;;;;;;7.38;2.20;;;19.60;76.90;;;;;;10086080;28;20060;-61
2023/05/30 01:21:00;;;;;;;4.22;2.20;;;19.40;77.20;;;;;;10089277;28;20024;-60
2023/05/30 01:26:24;;;;;;;3.92;2.00;;;19.30;77.50;;;;;;10078523;28;20025;-61
2023/05/30 01:31:15;;;;;;;6.00;2.30;;;19.30;78.00;;;;;;10094356;28;20525;-62
2023/05/30 01:36:06;;;;;;;4.45;2.58;;;19.20;77.60;;;;;;10098300;28;20037;-60
2023/05/30 01:40:59;;;;;;;4.07;2.17;;;19.10;77.90;;;;;;10098388;28;20029;-64
2023/05/30 01:46:06;;;;;;;3.90;1.88;;;19.20;77.70;;;;;;10098606;28;20028;-61
2023/05/30 01:50:58;;;;;;;5.70;2.17;;;19.10;78.30;;;;;;10105921;28;20476;-61
2023/05/30 01:55:54;;;;;;;4.53;2.50;;;19.00;77.70;;;;;;10106387;28;20033;-60
2023/05/30 02:00:47;;;;;;;5.95;2.13;;;18.90;78.40;;;;;;10078357;28;20044;-61
2023/05/30 02:05:37;;;;;;;5.38;2.20;;;18.80;78.60;;;;;;10094513;28;20029;-61
2023/05/30 02:10:28;;;;;;;4.13;1.60;;;18.80;78.30;;;;;;10105284;28;20032;-61
2023/05/30 02:15:18;;;;;;;4.15;2.10;;;18.90;78.20;;;;;;10098620;28;20445;-60
2023/05/30 02:20:09;;;;;;;6.32;2.10;;;18.80;78.50;;;;;;10082365;28;20491;-61
2023/05/30 02:25:01;;;;;;;4.78;2.55;;;18.70;78.50;;;;;;10088478;28;20382;-63
2023/05/30 02:29:52;;;;;;;6.43;2.90;;;18.50;78.90;;;;;;10090610;28;20032;-61
2023/05/30 02:34:42;;;;;;;5.15;1.85;;;18.40;79.10;;;;;;10105608;28;20035;-62
2023/05/30 02:39:33;;;;;;;4.15;2.10;;;18.50;79.10;;;;;;10104017;28;20029;-60
2023/05/30 02:44:24;;;;;;;5.82;1.83;;;18.40;79.20;;;;;;10104083;28;20025;-61
2023/05/30 02:49:14;;;;;;;3.17;1.73;;;18.30;79.30;;;;;;10104194;28;20021;-62
2023/05/30 02:54:05;;;;;;;4.78;2.10;;;18.30;79.60;;;;;;10103538;28;20048;-62
2023/05/30 02:58:57;;;;;;;4.68;2.17;;;18.40;79.20;;;;;;10117726;28;20017;-61
2023/05/30 03:03:48;;;;;;;2.78;1.60;;;18.30;78.90;;;;;;10102172;28;20105;-61
2023/05/30 03:08:40;;;;;;;5.28;1.92;;;18.20;79.40;;;;;;10073196;28;20109;-61
2023/05/30 03:13:31;;;;;;;3.67;2.13;;;18.00;79.90;;;;;;10078203;28;20049;-61
2023/05/30 03:18:22;;;;;;;4.63;2.13;;;18.00;79.90;;;;;;10101912;28;20040;-60
2023/05/30 03:23:12;;;;;;;5.60;2.53;;;18.00;80.00;;;;;;10052512;28;20056;-61
2023/05/30 03:28:06;;;;;;;4.53;1.88;;;17.90;80.10;;;;;;10068265;28;20464;-61
2023/05/30 03:32:56;;;;;;;3.17;2.10;;;17.80;80.30;;;;;;10064357;28;20028;-63
2023/05/30 03:37:47;;;;;;;3.88;2.03;;;17.80;80.10;;;;;;10062077;28;20040;-60
2023/05/30 03:42:38;;;;;;;4.15;2.20;;;17.90;79.90;;;;;;10078926;28;20029;-65
2023/05/30 03:47:28;;;;;;;2.83;1.98;;;17.90;80.00;;;;;;10101447;28;20108;-60
2023/05/30 03:52:19;;;;;;;3.28;1.90;;;17.80;80.00;;;;;;10101314;28;20036;-62
2023/05/30 03:57:10;;;;;;;5.28;2.40;;;17.90;79.90;;;;;;10101089;28;20040;-60
2023/05/30 04:02:00;;;;;;;5.70;1.90;;;17.90;79.80;;;;;;10101651;28;20033;-67
2023/05/30 04:06:51;;;;;;;2.97;1.70;;;17.90;79.70;;;;;;10098736;28;20033;-63
2023/05/30 04:11:42;;;;;;;4.60;1.98;;;17.80;79.80;;;;;;10079170;28;20491;-61
2023/05/30 04:16:33;;;;;;;3.85;2.00;;;17.70;80.10;;;;;;10066137;28;20152;-61
2023/05/30 04:21:23;;;;;;;6.05;2.58;;;17.80;80.10;;;;;;10100378;28;20116;-60
2023/05/30 04:26:14;;;;;;;2.58;1.85;;;17.70;80.30;;;;;;10063427;28;20029;-64
2023/05/30 04:31:08;;;;;;;6.55;2.03;;;17.40;80.80;;;;;;10096258;28;20108;-68
2023/05/30 04:35:59;;;;;;;7.10;2.50;;;17.60;80.60;;;;;;10099932;28;20076;-70
2023/05/30 04:40:50;;;;;;;4.07;2.55;;;17.70;80.40;;;;;;10114937;28;20029;-60
2023/05/30 04:45:44;;;;;;;3.47;2.53;;;17.60;80.50;;;;;;10099396;28;20043;-63
2023/05/30 04:50:37;;;;;;;4.88;2.38;;;17.70;80.40;;;;;;10099762;28;20029;-65
2023/05/30 04:55:28;;;;;;;5.03;2.97;;;17.70;80.50;;;;;;10099363;28;20037;-63
2023/05/30 05:00:19;;;;;;;5.15;2.45;;;17.50;80.80;;;;;;10098716;28;20036;-66
2023/05/30 05:05:10;;;;;;;3.10;1.63;;;17.50;80.80;;;;;;10080185;28;20057;-61
2023/05/30 05:10:02;;;;;;;4.75;1.85;;;17.50;80.90;;;;;;10056641;28;20542;-62
2023/05/30 05:14:55;;;;;;;7.72;2.20;;;17.50;80.90;;;;;;10079921;28;20041;-67
2023/05/30 05:19:46;;;;;;;5.80;2.13;;;17.60;80.60;;;;;;10098584;28;20020;-63
2023/05/30 05:24:37;;;;;;;5.20;2.53;;;17.70;80.40;;;;;;10098922;28;20017;-63
2023/05/30 05:29:27;;;;;;;5.60;1.92;;;17.60;80.50;;;;;;10075311;28;20277;-70
2023/05/30 05:34:18;;;;;;;4.32;2.05;;;17.70;80.50;;;;;;10092850;28;20091;-61
2023/05/30 05:39:09;;;;;;;6.18;1.67;;;17.60;80.50;;;;;;10090596;28;20017;-65
2023/05/30 05:43:59;;;;;;;6.47;2.15;;;17.50;80.40;;;;;;10098846;28;20131;-60
2023/05/30 05:48:50;;;;;;;4.13;1.65;;;17.50;80.60;;;;;;10101057;28;20025;-66
2023/05/30 05:53:41;;;;;;;8.38;2.10;;;17.50;80.40;;;;;;10098719;28;20353;-71
2023/05/30 05:58:32;;;;;;;2.95;1.92;;;17.60;80.30;;;;;;10097631;28;20037;-64
2023/05/30 06:03:22;;;;;;;4.53;2.00;;;17.60;80.20;;;;;;10078599;28;20022;-70
2023/05/30 06:08:13;;;;;;;3.20;1.80;;;17.80;79.80;;;;;;10076796;28;20032;-63
2023/05/30 06:13:03;;;;;;;3.90;2.22;;;17.80;79.60;;;;;;10092441;28;20046;-71
2023/05/30 06:17:54;;;;;;;3.60;2.47;;;17.80;79.50;;;;;;10084960;28;20056;-61
2023/05/30 06:22:45;;;;;;;10.85;1.70;;;17.90;79.40;;;;;;10096516;28;20573;-60
2023/05/30 06:27:36;;;;;;;5.78;2.50;;;18.20;79.00;;;;;;10093637;28;20038;-61
2023/05/30 06:32:26;;;;;;;5.60;2.25;;;18.10;78.90;;;;;;10110482;28;20265;-61
2023/05/30 06:37:17;;;;;;;6.85;1.95;;;18.00;79.30;;;;;;10104767;28;20048;-67
2023/05/30 06:42:11;;;;;;;8.32;2.20;;;18.10;79.20;;;;;;10104655;28;20105;-64
2023/05/30 06:47:03;;;;;;;6.60;2.47;;;18.20;78.80;;;;;;10104840;28;20072;-60
2023/05/30 06:51:53;;;;;;;5.22;2.85;;;18.40;78.60;;;;;;10104521;28;20075;-62
2023/05/30 06:56:44;;;;;;;6.82;2.65;;;18.40;78.70;;;;;;10096724;28;20396;-75
2023/05/30 07:01:34;;;;;;;4.28;2.13;;;18.40;78.50;;;;;;10086045;28;20033;-64
2023/05/30 07:06:25;;;;;;;5.38;2.40;;;18.50;78.10;;;;;;10094394;28;20044;-61
2023/05/30 07:11:16;;;;;;;6.15;2.22;;;18.50;78.30;;;;;;10083948;28;20047;-60
2023/05/30 07:16:07;;;;;;;6.53;2.67;;;18.60;78.10;;;;;;10090063;28;20049;-61
2023/05/30 07:20:58;;;;;;;7.28;2.45;;;18.80;77.70;;;;;;10103110;28;20032;-65
2023/05/30 07:25:48;;;;;;;6.00;2.22;;;18.90;77.40;;;;;;10102277;28;20045;-60
2023/05/30 07:30:39;;;;;;;3.80;2.10;;;19.00;77.30;;;;;;10086544;28;20041;-63
2023/05/30 07:35:30;;;;;;;5.70;2.53;;;19.00;77.10;;;;;;10062152;28;20045;-60
2023/05/30 07:40:20;;;;;;;5.07;2.25;;;19.00;77.10;;;;;;10067881;28;20033;-61
2023/05/30 07:45:11;;;;;;;5.00;2.28;;;19.10;77.00;;;;;;10117857;28;20493;-61
2023/05/30 07:50:02;;;;;;;5.78;2.10;;;19.40;76.70;;;;;;10102543;28;20327;-61
2023/05/30 07:54:52;;;;;;;5.63;1.95;;;19.70;76.30;;;;;;10101865;28;20036;-60
2023/05/30 07:59:43;;;;;;;7.53;2.35;;;19.70;76.30;;;;;;10097775;28;20027;-62
2023/05/30 08:04:34;;;;;;;5.65;2.17;;;19.60;76.30;;;;;;10089162;28;20113;-61
2023/05/30 08:09:25;;;;;;;4.63;2.00;;;19.50;76.40;;;;;;10053497;28;20029;-61
2023/05/30 08:14:16;;;;;;;7.15;2.08;;;19.60;76.30;;;;;;10061691;28;20041;-60
2023/05/30 08:19:06;;;;;;;5.88;2.55;;;19.60;76.30;;;;;;10096612;28;20025;-60
2023/05/30 08:23:57;;;;;;;5.32;2.95;;;19.90;75.90;;;;;;10103101;28;20029;-61
2023/05/30 08:28:48;;;;;;;4.85;3.03;;;19.90;75.70;;;;;;10111227;28;20064;-63
2023/05/30 08:33:39;;;;;;;3.10;1.80;;;20.10;75.60;;;;;;10101223;28;20490;-61
2023/05/30 08:38:29;;;;;;;5.47;2.20;;;20.20;75.40;;;;;;10100464;28;20028;-67
2023/05/30 08:43:20;;;;;;;7.80;2.13;;;20.20;75.80;;;;;;10099762;28;20081;-60
2023/05/30 08:48:15;;;;;;;6.05;2.30;;;20.50;75.50;;;;;;10100372;28;20059;-61
2023/05/30 08:53:22;;;;;;;5.50;2.42;;;20.50;75.40;;;;;;10099798;28;20019;-60
2023/05/30 08:58:25;;;;;;;4.50;1.95;;;20.40;75.60;;;;;;10097867;28;20521;-59
2023/05/30 09:03:16;;;;;;;5.93;2.25;;;20.30;75.70;;;;;;10099590;28;20021;-62
2023/05/30 09:08:08;;;;;;;6.35;2.58;;;20.80;75.30;;;;;;10099468;28;20029;-62
2023/05/30 09:12:59;;;;;;;7.07;3.13;;;20.70;75.30;;;;;;10098836;28;20503;-64
2023/05/30 09:17:51;;;;;;;4.47;2.20;;;20.80;75.40;;;;;;10098844;28;20059;-63
2023/05/30 09:22:43;;;;;;;5.00;2.63;;;20.90;75.30;;;;;;10098657;28;20033;-61
2023/05/30 09:27:38;;;;;;;4.68;2.42;;;20.80;75.30;;;;;;10095906;28;20025;-68
2023/05/30 09:32:36;;;;;;;;;;;20.80;75.40;;;;;;10096569;28;20521;-62
2023/05/30 09:37:42;;;;;;;3.83;2.00;;;20.80;75.30;;;;;;10098088;28;20290;-61
2023/05/30 09:42:44;;;;;;;7.45;3.65;;;21.30;74.80;;;;;;10098512;28;20053;-63
2023/05/30 09:47:46;;;;;;;4.18;2.38;;;21.40;74.70;;;;;;10094203;28;20112;-62
2023/05/30 09:52:36;;;;;;;4.75;2.60;;;21.20;74.60;;;;;;10075092;28;20040;-64
2023/05/30 09:57:27;;;;;;;6.00;2.35;;;21.20;74.70;;;;;;10099048;28;20104;-61
2023/05/30 10:02:22;;;;;;;7.68;2.80;;;21.20;74.70;;;;;;10080807;28;20036;-60
2023/05/30 10:07:14;;;;;;;7.22;2.60;;;21.40;75.10;;;;;;10098929;28;20029;-60
2023/05/30 10:12:06;;;;;;;7.15;2.70;;;21.50;74.30;;;;;;10105352;28;20132;-67
2023/05/30 10:17:03;;;;;;;10.30;3.05;;;21.60;74.10;;;;;;10105917;28;20044;-71
2023/05/30 10:21:55;;;;;;;5.57;1.90;;;21.70;73.90;;;;;;10105056;28;20643;-65
2023/05/30 10:26:55;;;;;;;3.38;2.10;;;22.00;73.60;;;;;;10086643;28;20521;-66
2023/05/30 10:31:46;;;;;;;5.03;2.63;;;22.00;73.20;;;;;;10102819;28;20475;-62
2023/05/30 10:36:41;;;;;;;4.30;1.92;;;22.00;73.50;;;;;;10104844;28;20095;-60
2023/05/30 10:41:49;;;;;;;3.75;2.22;;;22.10;73.10;;;;;;10087506;28;20059;-69
2023/05/30 10:47:04;;;;;;;6.97;2.08;;;22.10;72.90;;;;;;10103872;28;20029;-63
2023/05/30 10:52:09;;;;;;;7.63;2.22;;;22.10;72.40;;;;;;10104123;28;20060;-64
2023/05/30 10:57:20;;;;;;;4.97;2.42;;;22.10;72.30;;;;;;10104176;28;20033;-62
2023/05/30 11:02:17;;;;;;;6.03;2.70;;;22.20;72.30;;;;;;10104155;28;20530;-62
2023/05/30 11:07:09;;;;;;;4.22;1.98;;;22.40;71.90;;;;;;10104359;28;20056;-62
2023/05/30 11:12:00;;;;;;;5.90;2.10;;;22.70;71.40;;;;;;10119130;28;20094;-62
2023/05/30 11:16:54;;;;;;;6.75;2.17;;;22.80;70.90;;;;;;10103353;28;20064;-63
2023/05/30 11:22:02;;;;;;;3.78;2.08;;;22.90;70.90;;;;;;10097708;28;20051;-63
2023/05/30 11:27:14;;;;;;;7.95;2.30;;;22.90;70.00;;;;;;10103186;28;20017;-63
2023/05/30 11:32:06;;;;;;;3.63;1.70;;;23.20;70.00;;;;;;10097081;28;20497;-63
2023/05/30 11:36:58;;;;;;;5.63;2.60;;;23.10;69.70;;;;;;10089146;28;20025;-60
2023/05/30 11:41:49;;;;;;;4.72;2.60;;;23.10;69.20;;;;;;10075129;28;20049;-61
2023/05/30 11:46:39;;;;;;;5.10;3.13;;;23.30;69.00;;;;;;10070938;28;20021;-61
2023/05/30 11:51:31;;;;;;;6.90;2.15;;;23.50;68.90;;;;;;10102787;28;20100;-65
2023/05/30 11:56:27;;;;;;;4.78;1.98;;;23.70;68.40;;;;;;10087481;28;20361;-63
2023/05/30 12:01:17;;;;;;;7.47;2.10;;;23.70;68.10;;;;;;10097434;28;20414;-63
2023/05/30 12:06:12;;;;;;;5.55;2.60;;;23.70;67.90;;;;;;10101721;28;20033;-70
2023/05/30 12:11:02;;;;;;;2.38;1.80;;;24.00;67.40;;;;;;10101328;28;20544;-65
2023/05/30 12:15:53;;;;;;;3.85;2.05;;;24.10;67.50;;;;;;10101211;28;20055;-61
2023/05/30 12:20:44;;;;;;;6.13;2.83;;;24.20;67.20;;;;;;10101594;28;20029;-64
2023/05/30 12:25:35;;;;;;;4.85;2.17;;;24.60;67.30;;;;;;10101583;28;20025;-66
2023/05/30 12:30:31;;;;;;;5.15;2.92;;;25.00;66.80;;;;;;10109243;28;20052;-67
2023/05/30 12:35:25;;;;;;;3.28;1.95;;;25.10;66.60;;;;;;10083805;28;20318;-61
2023/05/30 12:40:16;;;;;;;5.75;2.42;;;25.60;65.90;;;;;;10090745;28;20048;-64
2023/05/30 12:45:07;;;;;;;7.40;2.63;;;25.70;65.80;;;;;;10087870;28;20089;-62
2023/05/30 12:49:59;;;;;;;3.75;2.38;;;26.10;65.90;;;;;;10099877;28;20099;-62
2023/05/30 12:54:50;;;;;;;9.50;2.40;;;26.80;65.40;;;;;;10115539;28;20141;-60
2023/05/30 12:59:41;;;;;;;3.45;1.98;;;27.90;63.90;;;;;;10100144;28;20021;-62
2023/05/30 13:04:31;;;;;;;4.18;2.25;;;28.50;63.30;;;;;;10099190;28;20106;-71
2023/05/30 13:09:22;;;;;;;3.42;2.55;;;29.10;62.60;;;;;;10099182;28;20040;-60
2023/05/30 13:14:17;;;;;;;7.20;2.55;;;29.50;61.50;;;;;;10081666;28;20501;-62
2023/05/30 13:19:10;;;;;;;4.45;2.72;;;29.90;60.80;;;;;;10096107;28;20032;-61
2023/05/30 13:24:01;;;;;;;2.72;2.05;;;30.30;59.90;;;;;;10098789;28;20718;-62
2023/05/30 13:28:52;;;;;;;8.50;2.72;;;30.60;58.80;;;;;;10094619;28;20223;-62
2023/05/30 13:33:42;;;;;;;4.85;2.30;;;30.90;58.40;;;;;;10098541;28;20108;-64
2023/05/30 13:38:33;;;;;;;4.70;2.33;;;30.90;57.60;;;;;;10098572;28;20064;-61
2023/05/30 13:43:24;;;;;;;3.47;2.20;;;31.50;56.80;;;;;;10101686;28;20033;-66
2023/05/30 13:48:19;;;;;;;7.10;2.50;;;31.90;56.10;;;;;;10106903;28;20025;-60
2023/05/30 13:53:10;;;;;;;5.53;3.00;;;31.30;55.60;;;;;;10107066;28;20395;-62
2023/05/30 13:58:00;;;;;;;6.82;3.80;;;31.20;54.60;;;;;;10106151;28;20033;-61
2023/05/30 14:02:51;;;;;;;4.45;2.40;;;31.40;54.30;;;;;;10106328;28;20021;-61
2023/05/30 14:07:42;;;;;;;4.57;2.33;;;32.10;53.50;;;;;;10088423;28;20025;-62
2023/05/30 14:12:33;;;;;;;6.57;3.10;;;31.50;53.30;;;;;;10104913;28;20120;-62
2023/05/30 14:17:23;;;;;;;6.97;2.37;;;31.50;53.00;;;;;;10101620;28;20037;-62
2023/05/30 14:22:14;;;;;;;6.77;2.27;;;32.00;53.10;;;;;;10106142;28;20234;-62
2023/05/30 14:27:06;;;;;;;5.77;2.80;;;31.80;52.30;;;;;;10096628;28;20044;-61
2023/05/30 14:31:57;;;;;;;;;;;31.50;52.40;;;;;;10081647;28;20087;-61
2023/05/30 14:36:48;;;;;;;4.87;2.67;;;31.70;51.30;;;;;;10093573;28;19916;-67
2023/05/30 14:41:38;;;;;;;3.13;2.00;;;31.60;52.20;;;;;;10065943;28;20075;-65
2023/05/30 14:46:30;;;;;;;5.57;2.37;;;32.00;51.70;;;;;;10104582;28;20020;-65
2023/05/30 14:51:21;;;;;;;5.00;2.30;;;31.90;51.40;;;;;;10104582;28;20036;-62
2023/05/30 14:56:11;;;;;;;3.97;2.20;;;32.10;51.10;;;;;;10103585;28;20044;-64
2023/05/30 15:01:02;;;;;;;5.20;1.80;;;31.80;51.10;;;;;;10103996;28;20066;-63
2023/05/30 15:05:53;;;;;;;7.70;2.47;;;31.40;51.30;;;;;;10119051;28;20028;-61
2023/05/30 15:10:43;;;;;;;4.60;2.22;;;32.30;50.80;;;;;;10103461;28;20025;-66
2023/05/30 15:15:34;;;;;;;7.00;2.80;;;31.80;50.80;;;;;;10096818;28;20045;-62
2023/05/30 15:20:25;;;;;;;8.30;2.78;;;31.60;50.90;;;;;;10103548;28;20037;-64
2023/05/30 15:25:16;;;;;;;4.95;2.40;;;32.00;50.50;;;;;;10096839;28;20025;-61
2023/05/30 15:30:07;;;;;;;4.30;2.17;;;32.00;50.10;;;;;;10093499;28;20056;-62
2023/05/30 15:34:58;;;;;;;4.33;2.00;;;32.10;49.80;;;;;;10065462;28;20037;-62
2023/05/30 15:39:48;;;;;;;4.70;1.80;;;32.10;49.40;;;;;;10078539;28;20044;-67
2023/05/30 15:44:39;;;;;;;3.25;2.22;;;32.40;48.90;;;;;;10102058;28;20634;-61
2023/05/30 15:49:30;;;;;;;3.75;2.30;;;32.90;48.80;;;;;;10101967;28;20025;-62
2023/05/30 15:54:21;;;;;;;2.88;2.40;;;33.20;48.30;;;;;;10084094;28;20077;-62
2023/05/30 15:59:12;;;;;;;6.10;2.08;;;34.20;47.60;;;;;;10101402;28;20033;-62
2023/05/30 16:04:03;;;;;;;3.83;1.90;;;34.70;47.10;;;;;;10102138;28;20033;-62
2023/05/30 16:08:53;;;;;;;2.53;1.87;;;34.30;46.70;;;;;;10101878;28;20025;-61
2023/05/30 16:13:44;;;;;;;3.95;1.92;;;34.70;46.10;;;;;;10100751;28;20045;-67
2023/05/30 16:18:36;;;;;;;3.63;1.90;;;35.30;45.30;;;;;;10100398;28;20617;-66
2023/05/30 16:23:27;;;;;;;4.63;2.42;;;35.90;44.50;;;;;;10065333;28;20025;-62
2023/05/30 16:28:18;;;;;;;5.30;2.13;;;36.60;44.10;;;;;;10079000;28;20041;-61
2023/05/30 16:33:08;;;;;;;2.60;1.80;;;36.70;43.90;;;;;;10047589;28;20033;-60
2023/05/30 16:37:59;;;;;;;6.03;2.90;;;37.40;43.60;;;;;;10092679;28;20041;-62
2023/05/30 16:42:50;;;;;;;3.67;2.43;;;37.00;43.40;;;;;;10082372;28;20079;-60
2023/05/30 16:47:41;;;;;;;5.10;1.92;;;37.20;43.10;;;;;;10100210;28;20036;-65
2023/05/30 16:52:32;;;;;;;3.57;2.23;;;37.20;42.60;;;;;;10099482;28;20533;-68
2023/05/30 16:57:22;;;;;;;6.05;2.45;;;36.20;42.80;;;;;;10099385;28;20365;-68
2023/05/30 17:02:13;;;;;;;8.23;2.33;;;36.00;42.60;;;;;;10099716;28;20486;-67
2023/05/30 17:07:04;;;;;;;3.17;1.80;;;35.60;42.50;;;;;;10098907;28;20038;-70
2023/05/30 17:11:57;;;;;;;4.97;1.90;;;35.90;42.10;;;;;;10078885;28;20052;-64
2023/05/30 17:16:48;;;;;;;3.38;2.10;;;35.20;42.30;;;;;;10093193;28;20592;-63
2023/05/30 17:21:38;;;;;;;5.43;2.07;;;35.20;42.10;;;;;;10099129;28;20021;-63
2023/05/30 17:26:29;;;;;;;4.87;2.33;;;34.70;42.20;;;;;;10098212;28;20029;-68
2023/05/30 17:31:20;;;;;;;4.20;2.10;;;34.40;42.30;;;;;;10081440;28;20059;-68
2023/05/30 17:36:10;;;;;;;2.73;1.90;;;34.30;42.40;;;;;;10098504;28;20044;-63
2023/05/30 17:41:01;;;;;;;3.93;2.70;;;33.70;42.40;;;;;;10081949;28;20048;-61
2023/05/30 17:45:52;;;;;;;3.58;2.13;;;33.20;42.80;;;;;;10098406;28;20075;-64
2023/05/30 17:50:43;;;;;;;2.97;1.70;;;32.50;43.00;;;;;;10113770;28;20104;-63
2023/05/30 17:55:34;;;;;;;4.72;2.70;;;31.90;43.20;;;;;;10100059;28;20570;-61
2023/05/30 18:00:26;;;;;;;3.00;1.52;;;29.90;44.20;;;;;;10105140;28;20513;-67
2023/05/30 18:05:17;;;;;;;2.80;2.00;;;28.30;45.00;;;;;;10106828;28;20777;-62
2023/05/30 18:10:09;;;;;;;5.65;1.80;;;27.40;45.40;;;;;;10104247;28;20044;-62
2023/05/30 18:15:00;;;;;;;5.55;2.00;;;27.00;45.50;;;;;;10105057;28;20052;-64
2023/05/30 18:19:51;;;;;;;5.28;2.45;;;26.80;45.60;;;;;;10105300;28;20031;-63
2023/05/30 18:24:41;;;;;;;5.47;2.08;;;26.60;45.80;;;;;;10106925;28;20033;-61
2023/05/30 18:29:35;;;;;;;10.43;1.92;;;26.60;45.80;;;;;;10107743;28;20017;-60
2023/05/30 18:34:28;;;;;;;3.00;2.00;;;26.30;46.40;;;;;;10110889;28;20037;-62
2023/05/30 18:39:20;;;;;;;3.40;1.90;;;26.10;46.70;;;;;;10111659;28;20033;-61
2023/05/30 18:44:10;;;;;;;4.90;2.17;;;26.00;47.10;;;;;;10112763;28;20020;-70
2023/05/30 18:49:01;;;;;;;3.97;2.28;;;25.70;47.50;;;;;;10110118;28;20047;-62
2023/05/30 18:53:52;;;;;;;2.53;1.58;;;25.70;48.00;;;;;;10113053;28;20390;-61
2023/05/30 18:58:42;;;;;;;2.95;1.60;;;25.40;48.30;;;;;;10113034;28;20045;-65
2023/05/30 19:03:33;;;;;;;7.05;1.75;;;25.30;48.70;;;;;;10112616;28;20136;-61
2023/05/30 19:08:24;;;;;;;3.65;1.80;;;25.20;48.90;;;;;;10112602;28;20039;-61
2023/05/30 19:13:14;;;;;;;2.85;1.65;;;25.10;49.40;;;;;;10112122;28;20048;-61
2023/05/30 19:18:05;;;;;;;4.40;2.13;;;25.00;49.50;;;;;;10096234;28;20377;-64
2023/05/30 19:22:56;;;;;;;4.72;2.17;;;25.00;49.70;;;;;;10112161;28;20550;-62
2023/05/30 19:28:02;;;;;;;2.15;1.40;;;24.90;50.00;;;;;;10112142;28;20045;-62
2023/05/30 19:32:53;;;;;;;3.45;2.05;;;24.60;50.50;;;;;;10110778;28;20039;-61
2023/05/30 19:37:43;;;;;;;8.60;7.10;;;24.50;50.70;;;;;;10113010;28;20038;-62
2023/05/30 19:42:34;;;;;;;3.58;2.25;;;24.30;51.00;;;;;;10114481;28;20017;-63
2023/05/30 19:47:25;;;;;;;2.88;1.98;;;24.20;51.00;;;;;;10100407;28;20449;-69
2023/05/30 19:52:15;;;;;;;2.33;1.48;;;24.20;51.10;;;;;;10117487;28;20021;-64
2023/05/30 19:57:07;;;;;;;2.97;1.83;;;24.20;51.10;;;;;;10113496;28;20072;-63
2023/05/30 20:01:57;;;;;;;4.35;1.75;;;24.10;50.90;;;;;;10092553;28;20056;-62
2023/05/30 20:06:48;;;;;;;1.83;1.52;;;24.00;50.90;;;;;;10109647;28;20041;-73
2023/05/30 20:11:39;;;;;;;4.47;1.67;;;24.00;50.60;;;;;;10093892;28;20739;-73
2023/05/30 20:16:30;;;;;;;3.25;1.70;;;24.30;50.10;;;;;;10026540;28;20050;-70
2023/05/30 20:21:20;;;;;;;3.95;1.90;;;24.00;50.20;;;;;;10022773;28;20038;-66
2023/05/30 20:26:12;;;;;;;5.57;2.22;;;23.80;50.20;;;;;;10026057;28;20037;-61
2023/05/30 20:31:03;;;;;;;3.97;2.00;;;23.80;50.00;;;;;;10024909;28;20132;-63
2023/05/30 20:35:54;;;;;;;3.53;1.75;;;23.70;49.90;;;;;;10025110;28;20033;-65
2023/05/30 20:40:44;;;;;;;4.72;1.77;;;23.60;49.80;;;;;;10024367;28;20072;-63
2023/05/30 20:45:35;;;;;;;4.65;2.55;;;23.50;49.70;;;;;;10025424;28;20075;-72
2023/05/30 20:50:26;;;;;;;3.42;1.65;;;23.50;49.60;;;;;;10024240;28;20168;-60
2023/05/30 20:55:16;;;;;;;3.00;1.35;;;23.20;49.80;;;;;;10023439;28;20038;-61
2023/05/30 21:00:08;;;;;;;3.08;1.40;;;23.10;49.80;;;;;;10025080;28;20037;-66
2023/05/30 21:04:59;;;;;;;2.35;1.52;;;23.00;49.70;;;;;;10026188;28;20546;-68
2023/05/30 21:09:50;;;;;;;2.58;1.40;;;22.70;49.90;;;;;;10025146;28;20037;-63
2023/05/30 21:14:41;;;;;;;2.67;1.50;;;22.60;50.10;;;;;;10072282;28;20076;-65
2023/05/30 21:19:31;;;;;;;3.05;1.73;;;22.50;50.40;;;;;;10106036;28;20040;-64
2023/05/30 21:24:22;;;;;;;5.03;2.13;;;22.40;50.60;;;;;;10104588;28;20035;-64
2023/05/30 21:29:13;;;;;;;4.13;1.67;;;22.30;50.80;;;;;;10105241;28;20025;-62
2023/05/30 21:34:05;;;;;;;3.88;1.77;;;22.20;51.00;;;;;;10107017;28;20036;-64
2023/05/30 21:38:56;;;;;;;2.42;1.35;;;22.00;51.30;;;;;;10105668;28;20048;-64
2023/05/30 21:43:47;;;;;;;1.80;1.20;;;21.80;51.70;;;;;;10103630;28;20053;-66
2023/05/30 21:48:38;;;;;;;3.92;1.50;;;21.70;51.90;;;;;;10104559;28;20506;-62
2023/05/30 21:53:28;;;;;;;1.98;1.35;;;21.60;52.10;;;;;;10103969;28;20025;-66
2023/05/30 21:58:21;;;;;;;2.15;1.30;;;21.40;52.50;;;;;;10105340;28;20099;-65
2023/05/30 22:03:12;;;;;;;3.63;1.40;;;21.40;52.70;;;;;;10090725;28;20440;-62
2023/05/30 22:08:03;;;;;;;5.15;1.75;;;21.30;52.90;;;;;;10113467;28;20039;-64
2023/05/30 22:12:53;;;;;;;2.13;1.25;;;21.20;54.10;;;;;;10099341;28;20435;-62
2023/05/30 22:17:44;;;;;;;2.17;1.45;;;21.00;53.90;;;;;;10105376;28;20041;-61
2023/05/30 22:22:35;;;;;;;3.90;1.45;;;20.90;54.60;;;;;;10104810;28;20108;-62
2023/05/30 22:27:25;;;;;;;2.85;1.20;;;20.90;54.40;;;;;;10101320;28;20159;-63
2023/05/30 22:32:16;;;;;;;5.30;1.65;;;21.00;54.40;;;;;;10100673;28;20037;-61
2023/05/30 22:37:07;;;;;;;4.63;1.75;;;20.90;54.80;;;;;;10104254;28;20040;-62
2023/05/30 22:41:57;;;;;;;2.00;1.33;;;20.80;55.10;;;;;;10104029;28;20017;-62
2023/05/30 22:46:48;;;;;;;3.17;1.55;;;20.80;55.10;;;;;;10104076;28;20060;-62
2023/05/30 22:51:40;;;;;;;4.10;1.77;;;20.70;55.30;;;;;;10102272;28;20021;-66
2023/05/30 22:56:32;;;;;;;5.05;1.75;;;20.70;56.10;;;;;;10089921;28;20056;-63
2023/05/30 23:01:22;;;;;;;3.50;1.48;;;20.70;55.40;;;;;;10106700;28;20316;-61
2023/05/30 23:06:13;;;;;;;2.58;1.35;;;20.70;55.40;;;;;;10085585;28;20021;-63
2023/05/30 23:11:04;;;;;;;2.70;1.25;;;20.60;55.40;;;;;;10086526;28;20017;-66
2023/05/30 23:15:54;;;;;;;3.08;1.40;;;20.50;55.60;;;;;;10082540;28;20045;-61
2023/05/30 23:20:45;;;;;;;2.28;1.33;;;20.50;55.50;;;;;;10103183;28;20035;-67
2023/05/30 23:25:35;;;;;;;3.67;1.42;;;20.40;55.50;;;;;;10102958;28;20056;-65
2023/05/30 23:30:27;;;;;;;3.15;1.25;;;20.40;55.50;;;;;;10096640;28;20567;-64
2023/05/30 23:35:18;;;;;;;1.65;1.30;;;20.20;55.50;;;;;;10118014;28;20045;-64
2023/05/30 23:40:09;;;;;;;4.43;1.13;;;20.10;55.60;;;;;;10102792;28;20509;-61
2023/05/30 23:44:59;;;;;;;2.90;1.60;;;20.00;55.60;;;;;;10101967;28;20025;-62
2023/05/30 23:49:50;;;;;;;3.25;1.67;;;19.90;55.70;;;;;;10088266;28;20116;-63
2023/05/30 23:54:40;;;;;;;2.05;1.55;;;19.80;55.90;;;;;;10096871;28;20032;-63
2023/05/30 23:59:31;;;;;;;2.95;1.08;;;19.80;56.00;;;;;;10106774;28;20390;-61
